createdAt,value
2019-03-19T00:03:28.938Z,98518.00
2019-03-19T00:08:34.800Z,98509.00
2019-03-19T00:13:41.542Z,98513.00
2019-03-19T00:18:48.228Z,98518.00
2019-03-19T00:23:55.306Z,98521.00
2019-03-19T00:29:02.084Z,98522.00
2019-03-19T00:34:08.774Z,98529.00
2019-03-19T00:39:14.741Z,98535.00
2019-03-19T00:44:21.447Z,98531.00
2019-03-19T00:49:28.100Z,98528.00
2019-03-19T00:54:34.033Z,98526.00
2019-03-19T00:59:40.916Z,98536.00
2019-03-19T01:05:08.588Z,98535.00
2019-03-19T01:10:17.695Z,98539.00
2019-03-19T01:15:24.609Z,98537.00
2019-03-19T01:20:30.531Z,98541.00
2019-03-19T01:25:38.024Z,98538.00
2019-03-19T01:30:44.450Z,98552.00
2019-03-19T01:36:13.595Z,98542.00
2019-03-19T01:41:19.487Z,98544.00
2019-03-19T01:46:45.655Z,98546.00
2019-03-19T01:52:13.640Z,98540.00
2019-03-19T01:57:19.514Z,98554.00
2019-03-19T02:02:25.969Z,98556.00
2019-03-19T02:07:32.221Z,98570.00
2019-03-19T02:12:38.130Z,98575.00
2019-03-19T02:17:44.581Z,98575.00
2019-03-19T02:22:52.401Z,98586.00
2019-03-19T02:28:19.434Z,98601.00
2019-03-19T02:33:25.408Z,98607.00
2019-03-19T02:38:31.333Z,98611.00
2019-03-19T02:43:37.167Z,98617.00
2019-03-19T02:48:45.087Z,98625.00
2019-03-19T02:53:51.779Z,98632.00
2019-03-19T02:59:19.811Z,98644.00
2019-03-19T03:04:26.815Z,98654.00
2019-03-19T03:09:32.731Z,98640.00
2019-03-19T03:14:39.510Z,98648.00
2019-03-19T03:19:46.307Z,98655.00
2019-03-19T03:24:53.346Z,98656.00
2019-03-19T03:30:00.528Z,98662.00
2019-03-19T03:35:09.996Z,98647.00
2019-03-19T03:40:17.919Z,98662.00
2019-03-19T03:45:25.779Z,98665.00
2019-03-19T03:50:31.667Z,98653.00
2019-03-19T03:55:38.441Z,98656.00
2019-03-19T04:00:45.238Z,98655.00
2019-03-19T04:05:52.525Z,98677.00
2019-03-19T04:10:58.474Z,98676.00
2019-03-19T04:16:05.985Z,98669.00
2019-03-19T04:21:12.869Z,98675.00
2019-03-19T04:26:19.276Z,98695.00
2019-03-19T04:31:25.656Z,98697.00
2019-03-19T04:36:31.579Z,98698.00
2019-03-19T04:41:37.520Z,98700.00
2019-03-19T04:46:44.328Z,98715.00
2019-03-19T04:52:09.514Z,98725.00
2019-03-19T04:57:26.034Z,98717.00
2019-03-19T05:02:24.583Z,98719.00
2019-03-19T05:07:30.452Z,98733.00
2019-03-19T05:12:36.488Z,98729.00
2019-03-19T05:17:43.144Z,98739.00
2019-03-19T05:22:49.643Z,98748.00
2019-03-19T05:27:55.572Z,98750.00
2019-03-19T05:33:01.478Z,98755.00
2019-03-19T05:38:07.401Z,98757.00
2019-03-19T05:43:14.141Z,98754.00
2019-03-19T05:48:20.819Z,98760.00
2019-03-19T05:53:27.746Z,98771.00
2019-03-19T05:58:33.632Z,98773.00
2019-03-19T06:03:40.452Z,98774.00
2019-03-19T06:08:46.976Z,98783.00
2019-03-19T06:14:14.607Z,98787.00
2019-03-19T06:19:21.550Z,98788.00
2019-03-19T06:24:28.401Z,98791.00
2019-03-19T06:29:34.428Z,98793.00
2019-03-19T06:34:41.308Z,98801.00
2019-03-19T06:40:11.113Z,98805.00
2019-03-19T06:45:19.010Z,98804.00
2019-03-19T06:50:28.031Z,98820.00
2019-03-19T06:55:33.715Z,98828.00
2019-03-19T07:00:40.716Z,98825.00
2019-03-19T07:05:47.173Z,98824.00
2019-03-19T07:10:53.875Z,98829.00
2019-03-19T07:16:00.580Z,98839.00
2019-03-19T07:21:09.002Z,98835.00
2019-03-19T07:26:16.195Z,98838.00
2019-03-19T07:31:30.779Z,98855.00
2019-03-19T07:36:30.762Z,98844.00
2019-03-19T07:41:37.688Z,98862.00
2019-03-19T07:46:45.909Z,98858.00
2019-03-19T07:51:53.572Z,98869.00
2019-03-19T07:57:01.479Z,98873.00
2019-03-19T08:02:08.350Z,98875.00
2019-03-19T08:07:15.245Z,98886.00
2019-03-19T08:12:22.073Z,98898.00
2019-03-19T08:17:28.559Z,98905.00
2019-03-19T08:22:34.535Z,98901.00
2019-03-19T08:27:40.606Z,98915.00
2019-03-19T08:32:47.455Z,98921.00
2019-03-19T08:37:54.257Z,98923.00
2019-03-19T08:43:01.102Z,98926.00
2019-03-19T08:48:07.952Z,98941.00
2019-03-19T08:53:14.711Z,98941.00
2019-03-19T08:58:21.534Z,98937.00
2019-03-19T09:03:28.327Z,98940.00
2019-03-19T09:08:34.304Z,98946.00
2019-03-19T09:13:41.126Z,98942.00
2019-03-19T09:18:47.905Z,98949.00
2019-03-19T09:23:54.726Z,98954.00
2019-03-19T09:29:02.477Z,98963.00
2019-03-19T09:34:09.295Z,98963.00
2019-03-19T09:39:37.927Z,98948.00
2019-03-19T09:44:44.635Z,98959.00
2019-03-19T09:49:51.436Z,98951.00
2019-03-19T09:54:57.992Z,98967.00
2019-03-19T10:00:15.976Z,98969.00
2019-03-19T10:05:22.851Z,98959.00
2019-03-19T10:10:30.425Z,98947.00
2019-03-19T10:15:38.605Z,98964.00
2019-03-19T10:20:46.478Z,98970.00
2019-03-19T10:25:53.235Z,98939.00
2019-03-19T10:30:59.843Z,98942.00
2019-03-19T10:36:27.022Z,98967.00
2019-03-19T10:41:33.012Z,98969.00
2019-03-19T10:46:39.826Z,98972.00
2019-03-19T10:51:47.384Z,98971.00
2019-03-19T10:56:54.157Z,98975.00
2019-03-19T11:02:01.200Z,98992.00
2019-03-19T11:07:07.936Z,99001.00
2019-03-19T11:12:14.760Z,99006.00
2019-03-19T11:17:21.624Z,99013.00
2019-03-19T11:22:28.395Z,99021.00
2019-03-19T11:27:34.411Z,99015.00
2019-03-19T11:32:41.146Z,99042.00
2019-03-19T11:37:48.033Z,99042.00
2019-03-19T11:42:54.523Z,99053.00
2019-03-19T11:48:00.913Z,99048.00
2019-03-19T11:53:07.411Z,99036.00
2019-03-19T11:58:35.394Z,99038.00
2019-03-19T12:03:41.976Z,99036.00
2019-03-19T12:08:48.509Z,99033.00
2019-03-19T12:13:54.934Z,99014.00
2019-03-19T12:19:02.644Z,99005.00
2019-03-19T12:24:09.427Z,99021.00
2019-03-19T12:29:16.995Z,99014.00
2019-03-19T12:34:23.919Z,99015.00
2019-03-19T12:39:30.008Z,99012.00
2019-03-19T12:44:35.961Z,99009.00
2019-03-19T12:49:42.751Z,99000.00
2019-03-19T12:54:49.252Z,98993.00
2019-03-19T12:59:55.741Z,99012.00
2019-03-19T13:05:02.564Z,98983.00
2019-03-19T13:10:36.907Z,98994.00
2019-03-19T13:15:43.670Z,99000.00
2019-03-19T13:20:50.473Z,99012.00
2019-03-19T13:25:57.256Z,99017.00
2019-03-19T13:31:04.045Z,99017.00
2019-03-19T13:36:10.830Z,99027.00
2019-03-19T13:41:17.465Z,99029.00
2019-03-19T13:46:24.185Z,99037.00
2019-03-19T13:51:31.228Z,99042.00
2019-03-19T13:56:37.248Z,99052.00
2019-03-19T14:01:44.078Z,99054.00
2019-03-19T14:06:50.854Z,99057.00
2019-03-19T14:11:57.621Z,99051.00
2019-03-19T14:17:06.583Z,99069.00
2019-03-19T14:22:31.229Z,99081.00
2019-03-19T14:27:38.793Z,99071.00
2019-03-19T14:32:45.284Z,99083.00
2019-03-19T14:37:51.764Z,99078.00
2019-03-19T14:43:01.469Z,99088.00
2019-03-19T14:48:08.422Z,99084.00
2019-03-19T14:53:15.107Z,99085.00
2019-03-19T14:58:22.048Z,99084.00
2019-03-19T15:03:28.499Z,99090.00
2019-03-19T15:08:34.456Z,99094.00
2019-03-19T15:13:42.285Z,99089.00
2019-03-19T15:18:49.166Z,99073.00
2019-03-19T15:23:56.074Z,99082.00
2019-03-19T15:29:02.986Z,99086.00
2019-03-19T15:34:09.878Z,99084.00
2019-03-19T15:39:16.930Z,99090.00
2019-03-19T15:44:23.753Z,99083.00
2019-03-19T15:49:38.153Z,99096.00
2019-03-19T15:54:38.650Z,99099.00
2019-03-19T15:59:45.398Z,99105.00
2019-03-19T16:04:52.180Z,99105.00
2019-03-19T16:09:59.711Z,99109.00
2019-03-19T16:15:10.468Z,99115.00
2019-03-19T16:20:18.783Z,99110.00
2019-03-19T16:25:25.626Z,99112.00
2019-03-19T16:30:31.558Z,99133.00
2019-03-19T16:35:38.714Z,99130.00
2019-03-19T16:40:45.523Z,99143.00
2019-03-19T16:45:53.584Z,99151.00
2019-03-19T16:51:00.642Z,99154.00
2019-03-19T16:56:07.718Z,99154.00
2019-03-19T17:01:14.844Z,99174.00
2019-03-19T17:06:43.632Z,99174.00
2019-03-19T17:11:50.626Z,99184.00
2019-03-19T17:17:18.628Z,99196.00
2019-03-19T17:22:25.429Z,99187.00
2019-03-19T17:27:31.651Z,99204.00
2019-03-19T17:32:38.691Z,99203.00
2019-03-19T17:37:45.650Z,99207.00
2019-03-19T17:42:52.286Z,99206.00
2019-03-19T17:47:58.858Z,99220.00
2019-03-19T17:53:05.413Z,99209.00
2019-03-19T17:58:12.200Z,99219.00
2019-03-19T18:03:18.696Z,99231.00
2019-03-19T18:08:25.575Z,99240.00
2019-03-19T18:13:32.695Z,99242.00
2019-03-19T18:18:40.541Z,99250.00
2019-03-19T18:23:48.257Z,99248.00
2019-03-19T18:28:55.094Z,99257.00
2019-03-19T18:34:09.966Z,99264.00
2019-03-19T18:39:11.296Z,99265.00
2019-03-19T18:44:18.064Z,99270.00
2019-03-19T18:49:24.926Z,99266.00
2019-03-19T18:54:30.902Z,99279.00
2019-03-19T18:59:36.910Z,99281.00
2019-03-19T19:04:43.328Z,99282.00
2019-03-19T19:09:51.233Z,99290.00
2019-03-19T19:14:59.054Z,99296.00
2019-03-19T19:20:09.141Z,99308.00
2019-03-19T19:25:27.239Z,99319.00
2019-03-19T19:30:36.016Z,99311.00
2019-03-19T19:35:43.145Z,99314.00
2019-03-19T19:40:50.942Z,99313.00
2019-03-19T19:45:57.913Z,99332.00
2019-03-19T19:51:04.711Z,99324.00
2019-03-19T19:56:32.013Z,99319.00
2019-03-19T20:01:38.927Z,99336.00
2019-03-19T20:06:44.888Z,99332.00
2019-03-19T20:11:51.464Z,99338.00
2019-03-19T20:16:59.645Z,99339.00
2019-03-19T20:22:08.104Z,99345.00
2019-03-19T20:27:15.072Z,99349.00
2019-03-19T20:32:22.131Z,99351.00
2019-03-19T20:37:29.271Z,99364.00
2019-03-19T20:42:35.597Z,99369.00
2019-03-19T20:47:42.929Z,99368.00
2019-03-19T20:52:49.957Z,99361.00
2019-03-19T20:57:57.468Z,99377.00
2019-03-19T21:03:04.173Z,99371.00
2019-03-19T21:08:10.626Z,99382.00
2019-03-19T21:13:17.674Z,99385.00
2019-03-19T21:18:24.733Z,99388.00
2019-03-19T21:23:30.887Z,99399.00
2019-03-19T21:28:37.707Z,99397.00
2019-03-19T21:33:51.254Z,99392.00
2019-03-19T21:38:52.769Z,99400.00
2019-03-19T21:43:59.321Z,99409.00
2019-03-19T21:49:05.947Z,99415.00
2019-03-19T21:54:12.386Z,99416.00
2019-03-19T21:59:19.920Z,99414.00
2019-03-19T22:04:26.696Z,99417.00
2019-03-19T22:09:32.682Z,99416.00
2019-03-19T22:14:38.697Z,99419.00
2019-03-19T22:19:45.529Z,99426.00
2019-03-19T22:24:52.294Z,99432.00
2019-03-19T22:29:59.225Z,99430.00
2019-03-19T22:35:26.842Z,99426.00
2019-03-19T22:40:32.766Z,99426.00
2019-03-19T22:45:39.435Z,99438.00
2019-03-19T22:50:47.383Z,99438.00
2019-03-19T22:56:15.398Z,99447.00
2019-03-19T23:01:22.226Z,99441.00
2019-03-19T23:06:29.131Z,99452.00
2019-03-19T23:11:35.122Z,99449.00
2019-03-19T23:17:02.323Z,99445.00
2019-03-19T23:22:08.837Z,99448.00
2019-03-19T23:27:15.359Z,99452.00
2019-03-19T23:32:21.823Z,99460.00
2019-03-19T23:37:28.397Z,99455.00
2019-03-19T23:42:34.482Z,99463.00
2019-03-19T23:47:41.365Z,99467.00
2019-03-19T23:52:48.209Z,99463.00
2019-03-19T23:57:54.971Z,99479.00
